createdAt,value
2019-03-10T00:00:34.337Z,78.09
2019-03-10T00:01:38.755Z,77.04
2019-03-10T00:02:43.039Z,77.42
2019-03-10T00:03:47.519Z,78.30
2019-03-10T00:04:51.893Z,78.06
2019-03-10T00:05:56.418Z,75.75
2019-03-10T00:07:00.769Z,77.65
2019-03-10T00:08:07.668Z,77.33
2019-03-10T00:09:09.754Z,77.71
2019-03-10T00:10:14.229Z,77.12
2019-03-10T00:11:18.596Z,76.96
2019-03-10T00:12:22.919Z,76.12
2019-03-10T00:13:27.225Z,76.92
2019-03-10T00:14:31.643Z,77.45
2019-03-10T00:15:35.948Z,77.52
2019-03-10T00:16:40.273Z,74.23
2019-03-10T00:17:44.442Z,76.80
2019-03-10T00:18:48.848Z,75.44
2019-03-10T00:19:53.182Z,73.04
2019-03-10T00:20:57.706Z,77.08
2019-03-10T00:22:01.769Z,77.97
2019-03-10T00:23:06.223Z,78.86
2019-03-10T00:24:10.632Z,77.24
2019-03-10T00:25:15.026Z,77.63
2019-03-10T00:26:20.884Z,78.25
2019-03-10T00:27:23.738Z,77.87
2019-03-10T00:28:28.365Z,78.82
2019-03-10T00:29:32.586Z,77.55
2019-03-10T00:30:36.972Z,78.21
2019-03-10T00:31:41.378Z,78.06
2019-03-10T00:32:45.786Z,78.83
2019-03-10T00:33:50.403Z,78.72
2019-03-10T00:34:54.974Z,77.20
2019-03-10T00:35:59.360Z,76.65
2019-03-10T00:37:03.664Z,74.52
2019-03-10T00:38:07.957Z,75.27
2019-03-10T00:40:01.553Z,77.19
2019-03-10T00:41:15.493Z,77.11
2019-03-10T00:42:38.242Z,78.02
2019-03-10T00:43:53.289Z,77.92
2019-03-10T00:46:09.483Z,78.31
2019-03-10T00:47:44.513Z,78.70
2019-03-10T00:50:10.230Z,78.11
2019-03-10T00:52:23.369Z,78.36
2019-03-10T00:53:27.603Z,78.41
2019-03-10T00:54:31.961Z,78.34
2019-03-10T00:55:36.380Z,78.20
2019-03-10T00:56:40.637Z,79.00
2019-03-10T00:57:44.727Z,78.71
2019-03-10T00:58:48.903Z,78.04
2019-03-10T00:59:53.036Z,78.26
2019-03-10T01:00:57.162Z,76.73
2019-03-10T01:02:01.334Z,77.99
2019-03-10T01:03:05.690Z,78.82
2019-03-10T01:04:10.109Z,78.89
2019-03-10T01:05:14.688Z,78.56
2019-03-10T01:06:18.737Z,78.55
2019-03-10T01:07:22.919Z,78.95
2019-03-10T01:08:27.071Z,78.11
2019-03-10T01:09:31.309Z,78.07
2019-03-10T01:10:35.426Z,78.44
2019-03-10T01:11:39.656Z,78.46
2019-03-10T01:12:44.205Z,78.48
2019-03-10T01:13:48.612Z,78.53
2019-03-10T01:14:53.056Z,78.60
2019-03-10T01:15:57.675Z,78.29
2019-03-10T01:17:01.988Z,78.47
2019-03-10T01:18:06.478Z,78.92
2019-03-10T01:19:10.821Z,78.58
2019-03-10T01:20:15.541Z,78.60
2019-03-10T01:21:20.258Z,78.07
2019-03-10T01:22:24.676Z,77.34
2019-03-10T01:23:29.213Z,77.07
2019-03-10T01:24:33.595Z,77.69
2019-03-10T01:25:37.826Z,78.41
2019-03-10T01:26:42.346Z,78.27
2019-03-10T01:27:46.621Z,78.62
2019-03-10T01:28:50.992Z,78.65
2019-03-10T01:29:55.382Z,78.61
2019-03-10T01:31:06.294Z,78.63
2019-03-10T01:32:24.533Z,79.04
2019-03-10T01:33:45.137Z,78.34
2019-03-10T01:34:59.152Z,78.68
2019-03-10T01:36:03.600Z,76.84
2019-03-10T01:37:07.993Z,77.91
2019-03-10T01:38:12.387Z,78.23
2019-03-10T01:39:16.642Z,77.92
2019-03-10T01:40:21.023Z,77.42
2019-03-10T01:41:25.457Z,78.53
2019-03-10T01:42:29.837Z,78.44
2019-03-10T01:43:34.216Z,78.30
2019-03-10T01:44:38.321Z,78.82
2019-03-10T01:45:42.407Z,78.19
2019-03-10T01:46:46.440Z,78.45
2019-03-10T01:47:50.442Z,78.82
2019-03-10T01:48:54.486Z,78.23
2019-03-10T01:49:58.595Z,78.44
2019-03-10T01:51:02.605Z,78.66
2019-03-10T01:52:06.663Z,78.56
2019-03-10T01:53:10.738Z,78.67
2019-03-10T01:54:14.878Z,77.82
2019-03-10T01:55:18.947Z,78.16
2019-03-10T01:56:22.982Z,78.27
2019-03-10T01:57:27.030Z,78.75
2019-03-10T01:58:31.041Z,78.70
2019-03-10T01:59:35.079Z,78.38
2019-03-10T02:00:39.429Z,77.79
2019-03-10T02:01:49.933Z,78.04
2019-03-10T02:02:53.957Z,78.22
2019-03-10T02:03:58.017Z,78.29
2019-03-10T02:05:02.098Z,78.75
2019-03-10T02:06:06.234Z,76.09
2019-03-10T02:07:10.250Z,77.70
2019-03-10T02:08:14.348Z,78.11
2019-03-10T02:09:18.440Z,78.25
2019-03-10T02:10:22.490Z,78.67
2019-03-10T02:11:26.629Z,78.69
2019-03-10T02:12:30.658Z,78.54
2019-03-10T02:13:34.715Z,77.09
2019-03-10T02:14:38.769Z,78.42
2019-03-10T02:15:42.924Z,76.70
2019-03-10T02:16:47.027Z,78.38
2019-03-10T02:17:51.116Z,78.23
2019-03-10T02:18:55.192Z,78.42
2019-03-10T02:19:59.260Z,79.00
2019-03-10T02:21:03.372Z,78.39
2019-03-10T02:22:07.491Z,77.59
2019-03-10T02:23:11.550Z,77.57
2019-03-10T02:24:23.462Z,78.32
2019-03-10T02:25:19.856Z,78.90
2019-03-10T02:26:23.924Z,78.57
2019-03-10T02:27:27.998Z,77.72
2019-03-10T02:28:32.040Z,77.60
2019-03-10T02:29:36.100Z,78.45
2019-03-10T02:30:40.111Z,77.70
2019-03-10T02:31:44.151Z,77.67
2019-03-10T02:32:48.276Z,78.54
2019-03-10T02:33:52.301Z,77.58
2019-03-10T02:34:56.602Z,78.30
2019-03-10T02:36:00.598Z,78.63
2019-03-10T02:37:04.706Z,78.09
2019-03-10T02:38:08.891Z,78.39
2019-03-10T02:39:12.961Z,79.07
2019-03-10T02:40:17.109Z,77.79
2019-03-10T02:41:21.469Z,78.06
2019-03-10T02:42:25.771Z,78.57
2019-03-10T02:43:30.206Z,78.98
2019-03-10T02:44:34.492Z,78.77
2019-03-10T02:45:38.878Z,78.49
2019-03-10T02:46:43.248Z,78.69
2019-03-10T02:47:47.620Z,79.12
2019-03-10T02:48:52.171Z,78.88
2019-03-10T02:49:56.544Z,79.35
2019-03-10T02:51:00.929Z,79.26
2019-03-10T02:52:05.256Z,79.21
2019-03-10T02:53:09.552Z,78.62
2019-03-10T02:54:13.914Z,78.82
2019-03-10T02:55:18.182Z,79.14
2019-03-10T02:56:22.485Z,79.16
2019-03-10T02:57:26.914Z,78.90
2019-03-10T02:58:31.384Z,79.05
2019-03-10T02:59:35.639Z,77.02
2019-03-10T03:00:39.897Z,78.76
2019-03-10T03:01:44.241Z,79.19
2019-03-10T03:02:48.583Z,79.29
2019-03-10T03:03:52.985Z,78.09
2019-03-10T03:04:57.603Z,79.46
2019-03-10T03:06:02.032Z,78.71
2019-03-10T03:07:06.423Z,76.78
2019-03-10T03:08:10.714Z,77.72
2019-03-10T03:09:15.095Z,79.22
2019-03-10T03:10:19.221Z,79.73
2019-03-10T03:11:23.267Z,79.27
2019-03-10T03:12:27.402Z,78.02
2019-03-10T03:13:31.442Z,78.78
2019-03-10T03:14:35.500Z,79.21
2019-03-10T03:15:39.857Z,79.56
2019-03-10T03:16:44.222Z,79.65
2019-03-10T03:17:48.565Z,80.12
2019-03-10T03:18:53.510Z,79.96
2019-03-10T03:19:57.852Z,80.21
2019-03-10T03:21:02.276Z,79.79
2019-03-10T03:22:06.575Z,79.46
2019-03-10T03:23:10.964Z,80.03
2019-03-10T03:24:15.305Z,80.13
2019-03-10T03:25:19.661Z,78.10
2019-03-10T03:26:24.142Z,77.08
2019-03-10T03:27:28.444Z,77.54
2019-03-10T03:28:32.770Z,77.55
2019-03-10T03:29:37.051Z,75.77
2019-03-10T03:30:41.378Z,78.76
2019-03-10T03:31:45.699Z,78.88
2019-03-10T03:32:50.119Z,74.19
2019-03-10T03:33:54.617Z,77.46
2019-03-10T03:34:59.079Z,78.56
2019-03-10T03:36:11.637Z,79.13
2019-03-10T03:37:18.406Z,79.27
2019-03-10T03:38:26.605Z,78.66
2019-03-10T03:39:35.291Z,78.90
2019-03-10T03:40:40.419Z,76.78
2019-03-10T03:41:44.729Z,78.25
2019-03-10T03:42:49.062Z,78.61
2019-03-10T03:43:53.431Z,79.95
2019-03-10T03:44:57.786Z,79.84
2019-03-10T03:46:02.314Z,79.65
2019-03-10T03:47:06.659Z,80.23
2019-03-10T03:48:11.071Z,79.34
2019-03-10T03:49:15.496Z,79.46
2019-03-10T03:50:19.851Z,80.52
2019-03-10T03:51:24.136Z,80.53
2019-03-10T03:52:28.509Z,80.69
2019-03-10T03:53:32.893Z,80.73
2019-03-10T03:54:37.250Z,80.72
2019-03-10T03:55:41.672Z,80.80
2019-03-10T03:56:46.026Z,81.05
2019-03-10T03:57:50.349Z,77.50
2019-03-10T03:58:54.834Z,79.40
2019-03-10T03:59:58.930Z,80.21
2019-03-10T04:01:12.446Z,73.93
2019-03-10T04:02:20.873Z,78.30
2019-03-10T04:03:25.359Z,80.33
2019-03-10T04:04:29.821Z,80.97
2019-03-10T04:05:34.233Z,81.21
2019-03-10T04:06:38.593Z,81.44
2019-03-10T04:07:42.971Z,81.46
2019-03-10T04:08:47.449Z,81.46
2019-03-10T04:09:51.709Z,81.65
2019-03-10T04:10:56.049Z,81.59
2019-03-10T04:12:00.271Z,78.42
2019-03-10T04:13:04.341Z,80.65
2019-03-10T04:14:08.750Z,81.29
2019-03-10T04:15:13.094Z,81.11
2019-03-10T04:16:17.469Z,81.61
2019-03-10T04:17:21.944Z,81.94
2019-03-10T04:18:26.410Z,81.94
2019-03-10T04:19:30.683Z,81.94
2019-03-10T04:20:34.988Z,82.59
2019-03-10T04:21:39.326Z,82.48
2019-03-10T04:22:43.821Z,82.41
2019-03-10T04:23:49.899Z,82.43
2019-03-10T04:24:54.514Z,82.41
2019-03-10T04:26:02.243Z,82.49
2019-03-10T04:29:25.778Z,81.46
2019-03-10T04:30:29.823Z,82.00
2019-03-10T04:31:34.370Z,82.57
2019-03-10T04:32:38.574Z,82.70
2019-03-10T04:33:42.950Z,82.79
2019-03-10T04:34:47.499Z,81.81
2019-03-10T04:35:51.860Z,82.26
2019-03-10T04:36:56.216Z,81.01
2019-03-10T04:38:00.665Z,81.77
2019-03-10T04:39:06.056Z,81.80
2019-03-10T04:40:10.600Z,81.19
2019-03-10T04:41:15.123Z,81.89
2019-03-10T04:42:19.385Z,80.29
2019-03-10T04:43:23.688Z,82.04
2019-03-10T04:44:28.117Z,82.21
2019-03-10T04:45:32.559Z,82.38
2019-03-10T04:46:36.854Z,80.14
2019-03-10T04:47:41.114Z,81.40
2019-03-10T04:48:45.559Z,82.26
2019-03-10T04:49:49.927Z,82.44
2019-03-10T04:50:54.236Z,82.86
2019-03-10T04:51:58.485Z,80.97
2019-03-10T04:53:02.885Z,81.73
2019-03-10T04:54:07.077Z,81.90
2019-03-10T04:55:20.277Z,82.37
2019-03-10T04:56:33.964Z,82.04
2019-03-10T04:57:38.413Z,81.25
2019-03-10T04:58:46.725Z,81.71
2019-03-10T04:59:51.057Z,78.89
2019-03-10T05:00:56.596Z,79.21
2019-03-10T05:02:01.023Z,81.53
2019-03-10T05:03:05.503Z,80.71
2019-03-10T05:04:09.817Z,81.43
2019-03-10T05:05:14.144Z,82.48
2019-03-10T05:06:18.487Z,81.61
2019-03-10T05:07:22.953Z,82.19
2019-03-10T05:08:27.371Z,80.71
2019-03-10T05:09:31.753Z,80.98
2019-03-10T05:10:36.225Z,78.89
2019-03-10T05:11:40.230Z,80.37
2019-03-10T05:12:44.282Z,80.12
2019-03-10T05:13:48.332Z,78.07
2019-03-10T05:14:52.335Z,79.91
2019-03-10T05:15:56.423Z,78.64
2019-03-10T05:17:00.489Z,78.01
2019-03-10T05:18:04.642Z,77.49
2019-03-10T05:19:09.025Z,78.67
2019-03-10T05:20:13.390Z,78.36
2019-03-10T05:21:17.943Z,78.41
2019-03-10T05:22:22.252Z,76.66
2019-03-10T05:23:33.540Z,79.83
2019-03-10T05:24:37.920Z,80.08
2019-03-10T05:25:42.223Z,80.47
2019-03-10T05:26:46.633Z,80.78
2019-03-10T05:27:51.041Z,78.37
2019-03-10T05:28:55.501Z,80.38
2019-03-10T05:29:59.884Z,76.56
2019-03-10T05:31:03.935Z,78.39
2019-03-10T05:32:08.038Z,79.83
2019-03-10T05:33:12.068Z,80.83
2019-03-10T05:34:16.184Z,81.01
2019-03-10T05:35:20.216Z,81.22
2019-03-10T05:36:24.302Z,81.66
2019-03-10T05:37:28.305Z,82.00
2019-03-10T05:38:32.332Z,81.38
2019-03-10T05:39:36.432Z,81.44
2019-03-10T05:40:40.490Z,81.28
2019-03-10T05:41:44.550Z,81.76
2019-03-10T05:42:49.000Z,81.90
2019-03-10T05:43:53.295Z,81.77
2019-03-10T05:44:57.788Z,78.61
2019-03-10T05:46:02.135Z,81.78
2019-03-10T05:47:06.541Z,81.47
2019-03-10T05:48:10.840Z,81.60
2019-03-10T05:49:15.004Z,79.14
2019-03-10T05:50:19.364Z,81.05
2019-03-10T05:51:23.670Z,81.51
2019-03-10T05:52:27.970Z,81.83
2019-03-10T05:53:32.298Z,82.30
2019-03-10T05:54:36.644Z,81.92
2019-03-10T05:55:41.063Z,82.02
2019-03-10T05:56:45.356Z,81.17
2019-03-10T05:57:49.748Z,81.20
2019-03-10T05:58:54.155Z,81.05
2019-03-10T05:59:58.531Z,77.04
2019-03-10T06:01:02.830Z,78.14
2019-03-10T06:02:07.377Z,78.20
2019-03-10T06:03:11.393Z,79.27
2019-03-10T06:04:15.675Z,78.76
2019-03-10T06:05:20.112Z,78.78
2019-03-10T06:06:24.530Z,80.62
2019-03-10T06:07:28.905Z,81.53
2019-03-10T06:08:33.141Z,76.73
2019-03-10T06:09:37.702Z,80.61
2019-03-10T06:10:42.036Z,79.98
2019-03-10T06:11:46.501Z,80.56
2019-03-10T06:12:50.751Z,80.66
2019-03-10T06:13:55.212Z,80.77
2019-03-10T06:14:59.521Z,75.12
2019-03-10T06:16:03.927Z,78.98
2019-03-10T06:17:08.424Z,79.17
2019-03-10T06:18:13.991Z,78.83
2019-03-10T06:19:17.286Z,77.17
2019-03-10T06:20:21.738Z,80.22
2019-03-10T06:21:26.043Z,74.10
2019-03-10T06:22:30.552Z,78.79
2019-03-10T06:23:34.797Z,79.34
2019-03-10T06:24:39.162Z,79.85
2019-03-10T06:25:43.614Z,79.92
2019-03-10T06:26:48.020Z,79.86
2019-03-10T06:27:52.352Z,79.07
2019-03-10T06:28:56.616Z,71.96
2019-03-10T06:30:00.947Z,77.67
2019-03-10T06:31:05.326Z,76.89
2019-03-10T06:32:09.770Z,78.44
2019-03-10T06:33:14.191Z,79.04
2019-03-10T06:34:18.469Z,80.11
2019-03-10T06:35:22.863Z,79.49
2019-03-10T06:36:27.021Z,78.42
2019-03-10T06:37:31.407Z,77.48
2019-03-10T06:38:35.839Z,78.53
2019-03-10T06:39:40.196Z,78.31
2019-03-10T06:40:44.457Z,78.58
2019-03-10T06:41:48.735Z,77.59
2019-03-10T06:42:53.103Z,71.42
2019-03-10T06:43:57.474Z,75.80
2019-03-10T06:45:01.962Z,70.79
2019-03-10T06:46:06.309Z,71.37
2019-03-10T06:47:10.694Z,72.17
2019-03-10T06:48:14.989Z,73.59
2019-03-10T06:49:19.417Z,74.10
2019-03-10T06:50:23.776Z,72.21
2019-03-10T06:51:27.813Z,72.04
2019-03-10T06:52:32.225Z,77.08
2019-03-10T06:53:36.658Z,76.56
2019-03-10T06:54:41.245Z,73.61
2019-03-10T06:55:45.689Z,75.94
2019-03-10T06:56:50.232Z,73.95
2019-03-10T06:57:54.728Z,75.99
2019-03-10T06:58:58.976Z,75.25
2019-03-10T07:00:03.529Z,68.95
2019-03-10T07:01:08.006Z,72.18
2019-03-10T07:02:12.335Z,74.97
2019-03-10T07:03:16.663Z,74.22
2019-03-10T07:04:21.179Z,73.48
2019-03-10T07:05:25.526Z,75.27
2019-03-10T07:06:29.896Z,67.84
2019-03-10T07:07:34.389Z,69.90
2019-03-10T07:08:38.683Z,73.43
2019-03-10T07:09:42.990Z,69.83
2019-03-10T07:10:47.470Z,74.09
2019-03-10T07:11:51.839Z,71.60
2019-03-10T07:12:56.174Z,66.98
2019-03-10T07:14:00.536Z,72.56
2019-03-10T07:15:05.037Z,74.61
2019-03-10T07:16:09.489Z,70.35
2019-03-10T07:17:13.839Z,72.74
2019-03-10T07:18:18.277Z,71.38
2019-03-10T07:19:23.036Z,74.21
2019-03-10T07:20:27.423Z,70.13
2019-03-10T07:21:31.935Z,69.11
2019-03-10T07:22:36.356Z,66.73
2019-03-10T07:23:40.752Z,68.58
2019-03-10T07:24:45.155Z,69.77
2019-03-10T07:25:53.592Z,73.63
2019-03-10T07:26:58.015Z,73.42
2019-03-10T07:28:15.198Z,75.11
2019-03-10T07:29:26.092Z,68.17
2019-03-10T07:30:37.661Z,71.78
2019-03-10T07:32:01.009Z,69.61
2019-03-10T07:33:15.306Z,70.64
2019-03-10T07:34:26.609Z,72.57
2019-03-10T07:35:37.782Z,74.87
2019-03-10T07:37:01.997Z,75.66
2019-03-10T07:38:13.197Z,74.19
2019-03-10T07:39:31.350Z,76.04
2019-03-10T07:41:43.555Z,74.12
2019-03-10T07:43:51.681Z,74.64
2019-03-10T07:45:34.471Z,71.73
2019-03-10T07:46:47.885Z,69.04
2019-03-10T07:48:00.193Z,65.90
2019-03-10T07:49:23.718Z,70.98
2019-03-10T07:51:39.432Z,70.58
2019-03-10T07:52:52.667Z,72.04
2019-03-10T07:54:05.567Z,69.57
2019-03-10T07:56:15.901Z,72.16
2019-03-10T07:57:40.411Z,71.04
2019-03-10T07:58:51.798Z,72.52
2019-03-10T08:00:01.751Z,73.66
2019-03-10T08:01:10.902Z,71.75
2019-03-10T08:02:22.913Z,68.02
2019-03-10T08:04:04.431Z,72.36
2019-03-10T08:05:19.892Z,71.77
2019-03-10T08:06:35.669Z,69.65
2019-03-10T08:07:44.996Z,67.75
2019-03-10T08:09:01.285Z,71.53
2019-03-10T08:10:12.856Z,70.76
2019-03-10T08:11:23.982Z,64.82
2019-03-10T08:12:33.308Z,66.86
2019-03-10T08:13:42.721Z,71.52
2019-03-10T08:14:51.183Z,72.93
2019-03-10T08:16:06.647Z,69.54
2019-03-10T08:18:19.987Z,70.78
2019-03-10T08:19:34.496Z,70.57
2019-03-10T08:20:46.906Z,70.22
2019-03-10T08:21:56.243Z,68.90
2019-03-10T08:23:20.382Z,70.30
2019-03-10T08:24:34.568Z,70.17
2019-03-10T08:25:48.094Z,66.80
2019-03-10T08:27:03.121Z,69.19
2019-03-10T08:28:12.228Z,65.97
2019-03-10T08:29:20.417Z,69.05
2019-03-10T08:30:29.633Z,66.64
2019-03-10T08:31:54.712Z,68.54
2019-03-10T08:33:03.816Z,66.50
2019-03-10T08:34:13.342Z,71.15
2019-03-10T08:35:22.769Z,67.24
2019-03-10T08:36:32.078Z,65.06
2019-03-10T08:38:45.397Z,66.50
2019-03-10T08:40:30.024Z,68.71
2019-03-10T08:41:43.874Z,63.26
2019-03-10T08:42:51.967Z,64.57
2019-03-10T08:45:00.647Z,69.82
2019-03-10T08:46:10.054Z,61.85
2019-03-10T08:47:26.247Z,65.98
2019-03-10T08:48:36.466Z,66.50
2019-03-10T08:49:45.816Z,66.56
2019-03-10T08:51:01.033Z,69.44
2019-03-10T08:52:09.490Z,68.38
2019-03-10T08:53:19.130Z,67.11
2019-03-10T08:54:39.503Z,66.05
2019-03-10T08:55:51.625Z,66.31
2019-03-10T08:57:03.186Z,64.69
2019-03-10T08:58:12.582Z,65.61
2019-03-10T08:59:21.930Z,65.47
2019-03-10T09:00:40.164Z,68.80
2019-03-10T09:01:55.937Z,66.31
2019-03-10T09:03:20.318Z,69.48
2019-03-10T09:04:40.790Z,67.81
2019-03-10T09:05:50.442Z,68.89
2019-03-10T09:09:04.799Z,72.16
2019-03-10T09:10:26.937Z,68.00
2019-03-10T09:11:38.141Z,68.60
2019-03-10T09:13:05.854Z,68.94
2019-03-10T09:14:21.118Z,67.13
2019-03-10T09:15:30.784Z,66.17
2019-03-10T09:16:40.978Z,67.97
2019-03-10T09:19:53.108Z,63.48
2019-03-10T09:21:16.566Z,65.67
2019-03-10T09:22:27.916Z,69.75
2019-03-10T09:23:36.348Z,67.78
2019-03-10T09:24:55.802Z,62.38
2019-03-10T09:28:11.391Z,66.13
2019-03-10T09:29:21.486Z,64.11
2019-03-10T09:30:32.926Z,62.60
2019-03-10T09:31:42.340Z,62.30
2019-03-10T09:34:58.338Z,65.11
2019-03-10T09:36:07.869Z,68.19
2019-03-10T09:37:19.450Z,67.50
2019-03-10T09:38:33.944Z,66.01
2019-03-10T09:39:43.216Z,63.67
2019-03-10T09:40:58.514Z,63.56
2019-03-10T09:43:08.714Z,62.00
2019-03-10T09:44:19.018Z,64.66
2019-03-10T09:45:28.513Z,65.87
2019-03-10T09:46:41.756Z,67.10
2019-03-10T09:47:52.982Z,63.94
2019-03-10T09:49:04.381Z,65.06
2019-03-10T09:50:28.090Z,66.63
2019-03-10T09:51:38.697Z,66.10
2019-03-10T09:52:54.277Z,67.90
2019-03-10T09:54:08.697Z,62.22
2019-03-10T09:56:16.007Z,66.68
2019-03-10T09:57:30.170Z,61.36
2019-03-10T09:58:46.551Z,62.23
2019-03-10T10:00:02.717Z,62.96
2019-03-10T10:01:15.049Z,65.21
2019-03-10T10:02:28.750Z,63.07
2019-03-10T10:03:38.190Z,61.11
2019-03-10T10:04:47.414Z,61.80
2019-03-10T10:07:03.500Z,61.52
2019-03-10T10:08:12.922Z,63.96
2019-03-10T10:09:24.142Z,67.84
2019-03-10T10:10:33.674Z,66.06
2019-03-10T10:11:51.152Z,66.43
2019-03-10T10:15:07.547Z,64.88
2019-03-10T10:16:20.759Z,65.23
2019-03-10T10:17:29.148Z,64.04
2019-03-10T10:18:37.562Z,63.32
2019-03-10T10:19:48.834Z,64.93
2019-03-10T10:21:18.343Z,65.66
2019-03-10T10:22:34.698Z,65.94
2019-03-10T10:23:44.873Z,61.79
2019-03-10T10:26:59.054Z,60.89
2019-03-10T10:28:10.505Z,63.80
2019-03-10T10:29:23.723Z,65.36
2019-03-10T10:31:42.483Z,62.71
2019-03-10T10:32:53.641Z,62.17
2019-03-10T10:34:32.050Z,63.14
2019-03-10T10:36:42.411Z,60.86
2019-03-10T10:37:50.827Z,64.54
2019-03-10T10:39:00.463Z,62.29
2019-03-10T10:40:11.514Z,62.13
2019-03-10T10:41:20.925Z,61.21
2019-03-10T10:42:38.678Z,62.08
2019-03-10T10:43:50.143Z,60.18
2019-03-10T10:45:57.236Z,59.63
2019-03-10T10:47:12.486Z,63.61
2019-03-10T10:48:26.344Z,58.52
2019-03-10T10:49:37.678Z,59.08
2019-03-10T10:51:44.753Z,59.08
2019-03-10T10:56:52.187Z,62.92
2019-03-10T10:58:20.002Z,62.01
2019-03-10T10:59:34.426Z,61.37
2019-03-10T11:00:43.171Z,56.16
2019-03-10T11:01:55.291Z,57.39
2019-03-10T11:03:05.150Z,59.92
2019-03-10T11:05:12.427Z,60.16
2019-03-10T11:06:29.115Z,55.07
2019-03-10T11:07:53.520Z,58.44
2019-03-10T11:09:06.917Z,56.68
2019-03-10T11:10:16.539Z,54.45
2019-03-10T11:11:30.898Z,56.81
2019-03-10T11:12:44.247Z,52.66
2019-03-10T11:13:57.842Z,51.52
2019-03-10T11:15:18.448Z,52.96
2019-03-10T11:16:34.925Z,52.82
2019-03-10T11:17:44.038Z,52.05
2019-03-10T11:19:00.760Z,50.21
2019-03-10T11:22:15.381Z,51.60
2019-03-10T11:23:24.746Z,51.78
2019-03-10T11:24:48.886Z,51.91
2019-03-10T11:26:00.500Z,51.14
2019-03-10T11:27:09.658Z,49.42
2019-03-10T11:28:49.461Z,52.70
2019-03-10T11:30:05.828Z,53.49
2019-03-10T11:31:17.226Z,51.47
2019-03-10T11:32:27.390Z,49.21
2019-03-10T11:34:36.258Z,50.78
2019-03-10T11:35:49.323Z,49.90
2019-03-10T11:37:12.750Z,47.81
2019-03-10T11:38:37.188Z,46.14
2019-03-10T11:40:43.507Z,47.31
2019-03-10T11:41:54.254Z,47.82
2019-03-10T11:43:18.917Z,44.89
2019-03-10T11:44:34.109Z,47.40
2019-03-10T11:45:43.325Z,46.32
2019-03-10T11:47:51.330Z,47.43
2019-03-10T11:49:02.298Z,46.17
2019-03-10T11:52:16.514Z,45.80
2019-03-10T11:53:26.014Z,45.21
2019-03-10T11:54:35.568Z,44.14
2019-03-10T11:56:16.092Z,44.70
2019-03-10T11:57:27.456Z,46.74
2019-03-10T11:58:35.948Z,49.17
2019-03-10T11:59:45.482Z,46.70
2019-03-10T12:00:56.765Z,46.20
2019-03-10T12:02:16.174Z,45.12
2019-03-10T12:03:18.817Z,44.79
2019-03-10T12:04:40.401Z,44.39
2019-03-10T12:06:55.037Z,44.08
2019-03-10T12:08:05.170Z,44.68
2019-03-10T12:09:25.599Z,46.46
2019-03-10T12:10:29.992Z,47.32
2019-03-10T12:11:34.481Z,44.67
2019-03-10T12:12:38.830Z,47.61
2019-03-10T12:13:43.201Z,44.24
2019-03-10T12:14:47.550Z,46.50
2019-03-10T12:15:51.622Z,47.28
2019-03-10T12:16:55.642Z,45.10
2019-03-10T12:17:59.837Z,46.27
2019-03-10T12:19:04.057Z,44.83
2019-03-10T12:20:09.362Z,45.32
2019-03-10T12:21:13.508Z,44.06
2019-03-10T12:22:17.642Z,45.57
2019-03-10T12:23:21.898Z,46.05
2019-03-10T12:24:26.057Z,45.29
2019-03-10T12:25:30.213Z,42.87
2019-03-10T12:26:34.397Z,43.04
2019-03-10T12:27:38.556Z,46.51
2019-03-10T12:28:42.830Z,45.22
2019-03-10T12:29:46.902Z,45.23
2019-03-10T12:30:51.009Z,44.42
2019-03-10T12:31:55.093Z,42.26
2019-03-10T12:32:59.171Z,46.11
2019-03-10T12:34:05.283Z,45.59
2019-03-10T12:35:07.679Z,44.31
2019-03-10T12:36:11.711Z,45.21
2019-03-10T12:37:15.727Z,45.20
2019-03-10T12:38:19.812Z,42.56
2019-03-10T12:39:24.053Z,43.88
2019-03-10T12:40:28.182Z,44.31
2019-03-10T12:41:32.258Z,43.48
2019-03-10T12:42:36.357Z,43.70
2019-03-10T12:43:40.406Z,44.19
2019-03-10T12:44:44.544Z,43.14
2019-03-10T12:45:48.769Z,44.48
2019-03-10T12:46:52.792Z,44.35
2019-03-10T12:47:56.892Z,47.81
2019-03-10T12:49:00.968Z,46.09
2019-03-10T12:50:05.631Z,45.45
2019-03-10T12:51:09.708Z,47.17
2019-03-10T12:52:13.800Z,46.64
2019-03-10T12:53:17.992Z,44.76
2019-03-10T12:54:22.065Z,45.72
2019-03-10T12:55:26.164Z,45.33
2019-03-10T12:56:30.287Z,46.33
2019-03-10T12:57:34.421Z,43.88
2019-03-10T12:58:38.464Z,45.31
2019-03-10T12:59:42.586Z,43.38
2019-03-10T13:00:46.791Z,43.99
2019-03-10T13:01:50.886Z,44.56
2019-03-10T13:02:55.008Z,43.61
2019-03-10T13:03:59.434Z,45.82
2019-03-10T13:05:03.516Z,46.55
2019-03-10T13:06:07.766Z,45.76
2019-03-10T13:07:11.856Z,45.08
2019-03-10T13:08:16.150Z,47.03
2019-03-10T13:09:20.235Z,44.93
2019-03-10T13:10:24.465Z,45.73
2019-03-10T13:11:28.738Z,45.59
2019-03-10T13:12:33.186Z,46.58
2019-03-10T13:13:37.524Z,45.48
2019-03-10T13:14:41.906Z,48.79
2019-03-10T13:15:46.019Z,44.73
2019-03-10T13:16:50.222Z,44.04
2019-03-10T13:17:54.466Z,43.17
2019-03-10T13:18:58.713Z,44.62
2019-03-10T13:20:03.319Z,44.34
2019-03-10T13:21:07.738Z,43.27
2019-03-10T13:22:12.373Z,45.18
2019-03-10T13:23:16.867Z,43.28
2019-03-10T13:24:21.312Z,43.19
2019-03-10T13:25:25.805Z,41.19
2019-03-10T13:26:30.217Z,44.46
2019-03-10T13:27:34.803Z,42.82
2019-03-10T13:28:39.234Z,42.19
2019-03-10T13:29:43.395Z,42.03
2019-03-10T13:30:47.632Z,43.13
2019-03-10T13:31:51.969Z,42.92
2019-03-10T13:32:56.404Z,42.78
2019-03-10T13:34:00.933Z,42.75
2019-03-10T13:35:05.635Z,41.82
2019-03-10T13:36:10.232Z,43.03
2019-03-10T13:37:14.630Z,44.00
2019-03-10T13:38:19.023Z,45.70
2019-03-10T13:39:23.376Z,40.85
2019-03-10T13:40:27.831Z,40.80
2019-03-10T13:41:32.209Z,41.49
2019-03-10T13:42:36.521Z,39.43
2019-03-10T13:43:41.043Z,43.12
2019-03-10T13:44:45.330Z,43.23
2019-03-10T13:45:49.677Z,41.62
2019-03-10T13:46:53.955Z,42.25
2019-03-10T13:47:58.333Z,43.92
2019-03-10T13:49:02.673Z,44.42
2019-03-10T13:50:08.086Z,41.87
2019-03-10T13:51:12.494Z,42.92
2019-03-10T13:52:16.881Z,40.92
2019-03-10T13:53:21.187Z,39.66
2019-03-10T13:54:25.557Z,39.13
2019-03-10T13:55:29.706Z,40.08
2019-03-10T13:56:34.013Z,38.33
2019-03-10T13:57:38.313Z,38.55
2019-03-10T13:58:42.688Z,37.48
2019-03-10T13:59:47.074Z,40.63
2019-03-10T14:00:51.451Z,40.89
2019-03-10T14:01:55.761Z,40.82
2019-03-10T14:03:00.188Z,39.59
2019-03-10T14:04:04.619Z,42.08
2019-03-10T14:05:09.532Z,44.34
2019-03-10T14:06:13.810Z,42.80
2019-03-10T14:07:18.251Z,43.45
2019-03-10T14:08:22.660Z,43.17
2019-03-10T14:09:27.070Z,43.92
2019-03-10T14:10:31.625Z,40.25
2019-03-10T14:11:36.227Z,38.94
2019-03-10T14:12:40.606Z,41.78
2019-03-10T14:13:45.001Z,41.03
2019-03-10T14:14:49.304Z,41.01
2019-03-10T14:15:53.735Z,43.23
2019-03-10T14:16:58.241Z,42.48
2019-03-10T14:18:02.570Z,42.27
2019-03-10T14:19:07.081Z,40.10
2019-03-10T14:20:11.501Z,39.89
2019-03-10T14:21:15.938Z,43.26
2019-03-10T14:22:20.382Z,41.91
2019-03-10T14:23:24.617Z,43.36
2019-03-10T14:24:29.002Z,45.16
2019-03-10T14:25:33.428Z,43.76
2019-03-10T14:26:38.002Z,43.77
2019-03-10T14:27:42.281Z,40.49
2019-03-10T14:28:46.648Z,43.76
2019-03-10T14:29:50.860Z,40.75
2019-03-10T14:30:55.037Z,41.68
2019-03-10T14:31:59.486Z,41.46
2019-03-10T14:33:04.014Z,40.92
2019-03-10T14:34:08.641Z,42.96
2019-03-10T14:35:13.051Z,42.46
2019-03-10T14:36:17.322Z,40.84
2019-03-10T14:37:21.771Z,45.30
2019-03-10T14:38:26.209Z,44.51
2019-03-10T14:39:30.702Z,44.19
2019-03-10T14:40:34.996Z,45.68
2019-03-10T14:41:39.339Z,47.04
2019-03-10T14:42:44.026Z,47.92
2019-03-10T14:43:48.336Z,48.07
2019-03-10T14:44:52.701Z,48.53
2019-03-10T14:45:56.806Z,49.38
2019-03-10T14:47:01.109Z,49.65
2019-03-10T14:48:05.642Z,49.55
2019-03-10T14:49:10.038Z,49.81
2019-03-10T14:50:14.547Z,50.38
2019-03-10T14:51:18.718Z,50.33
2019-03-10T14:52:29.596Z,49.60
2019-03-10T14:53:33.982Z,49.23
2019-03-10T14:54:38.338Z,49.98
2019-03-10T14:55:42.729Z,48.75
2019-03-10T14:56:47.164Z,49.08
2019-03-10T14:57:51.512Z,50.23
2019-03-10T14:58:55.963Z,50.22
2019-03-10T15:00:00.496Z,48.39
2019-03-10T15:01:04.948Z,50.78
2019-03-10T15:02:09.424Z,49.67
2019-03-10T15:03:13.910Z,48.54
2019-03-10T15:04:18.073Z,50.28
2019-03-10T15:05:22.275Z,50.29
2019-03-10T15:06:26.373Z,49.08
2019-03-10T15:07:30.502Z,50.13
2019-03-10T15:08:34.714Z,50.18
2019-03-10T15:09:39.057Z,51.38